createdAt,value
2016-10-27T00:00:18.861Z,97.38
2016-10-27T00:01:31.407Z,97.19
2016-10-27T00:02:42.935Z,97.62
2016-10-27T00:03:55.454Z,98.34
2016-10-27T00:05:07.877Z,98.63
2016-10-27T00:06:20.896Z,98.49
2016-10-27T00:07:33.382Z,98.68
2016-10-27T00:08:46.386Z,99.07
2016-10-27T00:09:59.908Z,99.99
2016-10-27T00:11:12.367Z,99.84
2016-10-27T00:12:24.451Z,99.99
2016-10-27T00:13:37.053Z,99.99
2016-10-27T00:14:48.992Z,99.99
2016-10-27T00:16:02.098Z,99.99
2016-10-27T00:17:13.562Z,99.99
2016-10-27T00:18:26.023Z,99.99
2016-10-27T00:19:38.470Z,99.99
2016-10-27T00:20:52.018Z,99.99
2016-10-27T00:22:04.511Z,99.99
2016-10-27T00:23:17.543Z,99.99
2016-10-27T00:24:30.645Z,99.99
2016-10-27T00:25:42.629Z,99.99
2016-10-27T00:26:55.584Z,99.99
2016-10-27T00:28:08.109Z,99.99
2016-10-27T00:29:20.543Z,99.99
2016-10-27T00:30:33.706Z,99.99
2016-10-27T00:31:45.786Z,99.99
2016-10-27T00:32:58.811Z,99.99
2016-10-27T00:34:12.384Z,99.99
2016-10-27T00:35:25.512Z,99.99
2016-10-27T00:36:37.997Z,99.99
2016-10-27T00:37:50.551Z,99.99
2016-10-27T00:39:03.504Z,99.99
2016-10-27T00:40:15.963Z,99.99
2016-10-27T00:41:28.589Z,99.99
2016-10-27T00:42:41.568Z,99.99
2016-10-27T00:43:54.564Z,99.99
2016-10-27T00:45:07.580Z,99.99
2016-10-27T00:46:21.291Z,99.99
2016-10-27T00:47:34.305Z,99.99
2016-10-27T00:48:47.923Z,99.99
2016-10-27T00:50:00.509Z,99.99
2016-10-27T00:51:12.475Z,99.99
2016-10-27T00:52:25.540Z,99.99
2016-10-27T00:53:37.998Z,99.99
2016-10-27T00:54:49.896Z,99.99
2016-10-27T00:56:02.364Z,99.99
2016-10-27T00:57:15.014Z,99.99
2016-10-27T00:58:28.061Z,99.99
2016-10-27T00:59:40.496Z,99.99
2016-10-27T01:00:52.984Z,99.99
2016-10-27T01:02:04.387Z,99.99
2016-10-27T01:03:16.863Z,99.99
2016-10-27T01:04:29.395Z,99.99
2016-10-27T01:05:41.350Z,99.99
2016-10-27T01:06:53.872Z,99.99
2016-10-27T01:08:06.930Z,99.99
2016-10-27T01:09:19.408Z,99.99
2016-10-27T01:10:31.366Z,99.99
2016-10-27T01:11:44.881Z,99.99
2016-10-27T01:12:56.808Z,99.99
2016-10-27T01:14:09.337Z,99.99
2016-10-27T01:15:21.268Z,99.99
2016-10-27T01:16:33.166Z,99.99
2016-10-27T01:17:45.662Z,99.99
2016-10-27T01:18:59.317Z,99.99
2016-10-27T01:20:11.283Z,99.99
2016-10-27T01:21:24.321Z,99.99
2016-10-27T01:22:35.747Z,99.99
2016-10-27T01:23:48.264Z,99.99
2016-10-27T01:25:00.897Z,99.99
2016-10-27T01:26:14.488Z,99.99
2016-10-27T01:27:26.976Z,99.99
2016-10-27T01:28:39.965Z,99.99
2016-10-27T01:29:52.069Z,99.99
2016-10-27T01:31:05.538Z,99.99
2016-10-27T01:32:18.090Z,99.99
2016-10-27T01:33:30.056Z,99.99
2016-10-27T01:34:42.013Z,99.99
2016-10-27T01:35:54.571Z,99.99
2016-10-27T01:37:07.585Z,99.99
2016-10-27T01:38:19.021Z,99.99
2016-10-27T01:39:32.569Z,99.99
2016-10-27T01:40:45.216Z,99.99
2016-10-27T01:41:58.231Z,99.99
2016-10-27T01:43:10.801Z,99.99
2016-10-27T01:44:23.813Z,99.99
2016-10-27T01:45:36.808Z,99.99
2016-10-27T01:46:50.002Z,99.99
2016-10-27T01:48:01.460Z,99.99
2016-10-27T01:49:15.014Z,99.99
2016-10-27T01:50:26.986Z,99.99
2016-10-27T01:51:40.609Z,99.99
2016-10-27T01:52:54.160Z,99.99
2016-10-27T01:54:06.124Z,99.99
2016-10-27T01:55:18.635Z,99.99
2016-10-27T01:56:32.140Z,99.99
2016-10-27T01:57:45.178Z,99.99
2016-10-27T01:58:56.566Z,99.99
2016-10-27T02:00:09.585Z,99.99
2016-10-27T02:01:22.046Z,99.99
2016-10-27T02:02:34.170Z,99.99
2016-10-27T02:03:46.658Z,99.99
2016-10-27T02:05:00.209Z,99.99
2016-10-27T02:06:11.593Z,99.99
2016-10-27T02:07:25.208Z,99.99
2016-10-27T02:08:39.081Z,99.99
2016-10-27T02:09:52.068Z,99.99
2016-10-27T02:11:05.093Z,99.99
2016-10-27T02:12:18.082Z,99.99
2016-10-27T02:13:30.744Z,99.99
2016-10-27T02:14:43.229Z,99.99
2016-10-27T02:15:56.702Z,99.99
2016-10-27T02:17:09.144Z,99.99
2016-10-27T02:18:22.194Z,99.99
2016-10-27T02:19:35.661Z,99.99
2016-10-27T02:20:47.603Z,99.99
2016-10-27T02:22:00.713Z,99.99
2016-10-27T02:23:12.750Z,99.99
2016-10-27T02:24:26.505Z,99.99
2016-10-27T02:25:40.012Z,99.99
2016-10-27T02:26:52.509Z,99.99
2016-10-27T02:28:04.444Z,99.99
2016-10-27T02:29:16.948Z,99.99
2016-10-27T02:30:29.082Z,99.99
2016-10-27T02:31:42.108Z,99.99
2016-10-27T02:32:54.579Z,99.99
2016-10-27T02:34:07.576Z,99.99
2016-10-27T02:35:19.209Z,99.99
2016-10-27T02:36:31.628Z,99.99
2016-10-27T02:37:45.174Z,99.99
2016-10-27T02:38:56.603Z,99.99
2016-10-27T02:40:09.616Z,99.99
2016-10-27T02:41:21.669Z,99.99
2016-10-27T02:42:34.142Z,99.99
2016-10-27T02:43:47.076Z,99.99
2016-10-27T02:45:00.609Z,99.99
2016-10-27T02:46:13.176Z,99.99
2016-10-27T02:47:25.678Z,99.99
2016-10-27T02:48:37.588Z,99.99
2016-10-27T02:49:51.076Z,99.99
2016-10-27T02:51:04.096Z,99.99
2016-10-27T02:52:16.673Z,99.99
2016-10-27T02:53:29.103Z,99.99
2016-10-27T02:54:42.151Z,99.99
2016-10-27T02:55:54.635Z,99.99
2016-10-27T02:57:06.214Z,99.99
2016-10-27T02:58:19.341Z,99.99
2016-10-27T02:59:32.286Z,99.99
2016-10-27T03:00:45.372Z,99.99
2016-10-27T03:01:57.883Z,99.99
2016-10-27T03:03:10.381Z,99.99
2016-10-27T03:04:22.895Z,99.99
2016-10-27T03:05:35.892Z,99.99
2016-10-27T03:06:47.787Z,99.99
2016-10-27T03:08:01.544Z,99.99
2016-10-27T03:09:14.033Z,99.99
2016-10-27T03:10:26.552Z,99.99
2016-10-27T03:11:39.529Z,99.99
2016-10-27T03:12:52.082Z,99.99
2016-10-27T03:14:05.847Z,99.99
2016-10-27T03:15:19.346Z,99.99
2016-10-27T03:16:32.330Z,99.99
2016-10-27T03:17:45.874Z,99.99
2016-10-27T03:18:57.396Z,99.99
2016-10-27T03:20:09.346Z,99.99
2016-10-27T03:21:22.851Z,99.99
2016-10-27T03:22:34.811Z,99.99
2016-10-27T03:23:46.752Z,99.99
2016-10-27T03:24:58.662Z,99.99
2016-10-27T03:26:11.657Z,99.99
2016-10-27T03:27:24.723Z,99.99
2016-10-27T03:28:37.268Z,99.99
2016-10-27T03:29:49.813Z,99.99
2016-10-27T03:31:01.218Z,99.99
2016-10-27T03:32:14.791Z,99.99
2016-10-27T03:33:28.295Z,99.99
2016-10-27T03:34:41.347Z,99.99
2016-10-27T03:35:53.791Z,99.99
2016-10-27T03:37:07.411Z,99.99
2016-10-27T03:38:18.837Z,99.99
2016-10-27T03:39:31.346Z,99.99
2016-10-27T03:40:43.895Z,99.99
2016-10-27T03:41:56.913Z,99.99
2016-10-27T03:43:10.408Z,99.99
2016-10-27T03:44:23.340Z,99.99
2016-10-27T03:45:36.849Z,99.99
2016-10-27T03:46:48.816Z,99.99
2016-10-27T03:48:02.408Z,99.99
2016-10-27T03:49:14.930Z,99.99
2016-10-27T03:50:27.362Z,99.99
2016-10-27T03:51:40.973Z,99.99
2016-10-27T03:52:54.441Z,99.99
2016-10-27T03:54:07.493Z,99.99
2016-10-27T03:55:19.975Z,99.99
2016-10-27T03:56:32.420Z,99.99
2016-10-27T03:57:45.370Z,99.99
2016-10-27T03:58:58.927Z,99.99
2016-10-27T04:00:12.464Z,99.99
2016-10-27T04:01:25.964Z,99.99
2016-10-27T04:02:39.028Z,99.99
2016-10-27T04:03:51.998Z,99.99
2016-10-27T04:05:05.038Z,99.99
2016-10-27T04:06:15.914Z,99.99
2016-10-27T04:07:28.421Z,99.99
2016-10-27T04:08:41.893Z,99.99
2016-10-27T04:09:54.893Z,99.99
2016-10-27T04:11:06.800Z,99.99
2016-10-27T04:12:18.803Z,99.99
2016-10-27T04:13:31.433Z,99.99
2016-10-27T04:14:43.911Z,99.99
2016-10-27T04:15:55.342Z,99.99
2016-10-27T04:17:07.774Z,99.99
2016-10-27T04:18:19.170Z,99.99
2016-10-27T04:19:32.166Z,99.99
2016-10-27T04:20:44.717Z,99.99
2016-10-27T04:21:57.669Z,99.99
2016-10-27T04:23:10.639Z,99.99
2016-10-27T04:24:23.802Z,99.99
2016-10-27T04:25:35.785Z,99.99
2016-10-27T04:26:49.334Z,99.99
2016-10-27T04:28:01.821Z,99.99
2016-10-27T04:29:15.319Z,99.99
2016-10-27T04:30:28.895Z,99.99
2016-10-27T04:31:41.404Z,99.99
2016-10-27T04:32:54.364Z,99.99
2016-10-27T04:34:06.359Z,99.99
2016-10-27T04:35:18.517Z,99.99
2016-10-27T04:36:31.523Z,99.99
2016-10-27T04:37:44.035Z,99.99
2016-10-27T04:38:55.967Z,99.99
2016-10-27T04:40:08.467Z,99.99
2016-10-27T04:41:20.522Z,99.99
2016-10-27T04:42:33.582Z,99.99
2016-10-27T04:43:44.462Z,99.99
2016-10-27T04:44:57.447Z,99.99
2016-10-27T04:46:11.119Z,99.99
2016-10-27T04:47:23.585Z,99.99
2016-10-27T04:48:35.572Z,99.99
2016-10-27T04:49:48.098Z,99.99
2016-10-27T04:51:01.074Z,99.99
2016-10-27T04:52:13.548Z,99.99
2016-10-27T04:53:25.544Z,99.99
2016-10-27T04:54:37.518Z,99.99
2016-10-27T04:55:49.453Z,99.99
2016-10-27T04:57:02.127Z,99.99
2016-10-27T04:58:15.121Z,99.99
2016-10-27T04:59:28.109Z,99.99
2016-10-27T05:00:40.545Z,99.99
2016-10-27T05:01:53.007Z,99.99
2016-10-27T05:03:05.069Z,99.99
2016-10-27T05:04:18.552Z,99.99
2016-10-27T05:05:30.483Z,99.99
2016-10-27T05:06:42.906Z,99.99
2016-10-27T05:07:55.533Z,99.99
2016-10-27T05:09:08.513Z,99.99
2016-10-27T05:10:21.506Z,99.99
2016-10-27T05:11:34.548Z,99.99
2016-10-27T05:12:48.123Z,99.99
2016-10-27T05:14:01.260Z,99.99
2016-10-27T05:15:14.291Z,99.99
2016-10-27T05:16:27.262Z,99.99
2016-10-27T05:17:39.690Z,99.99
2016-10-27T05:18:52.308Z,99.99
2016-10-27T05:20:04.313Z,99.99
2016-10-27T05:21:16.847Z,99.99
2016-10-27T05:22:29.845Z,99.99
2016-10-27T05:23:42.321Z,99.99
2016-10-27T05:24:54.485Z,99.99
2016-10-27T05:26:06.954Z,99.99
2016-10-27T05:27:19.406Z,99.99
2016-10-27T05:28:31.907Z,99.99
2016-10-27T05:29:44.996Z,99.99
2016-10-27T05:30:58.008Z,99.99
2016-10-27T05:32:10.504Z,99.99
2016-10-27T05:33:22.496Z,99.99
2016-10-27T05:34:35.572Z,99.99
2016-10-27T05:35:48.493Z,99.99
2016-10-27T05:37:01.494Z,99.99
2016-10-27T05:38:13.984Z,99.99
2016-10-27T05:39:25.922Z,99.99
2016-10-27T05:40:38.577Z,99.99
2016-10-27T05:41:52.012Z,99.99
2016-10-27T05:43:05.092Z,99.99
2016-10-27T05:44:18.127Z,99.99
2016-10-27T05:45:30.625Z,99.99
2016-10-27T05:46:43.641Z,99.99
2016-10-27T05:47:56.632Z,99.99
2016-10-27T05:49:10.228Z,99.99
2016-10-27T05:50:23.898Z,99.99
2016-10-27T05:51:37.655Z,99.99
2016-10-27T05:52:50.633Z,99.99
2016-10-27T05:54:03.653Z,99.99
2016-10-27T05:55:17.198Z,99.99
2016-10-27T05:56:30.179Z,99.99
2016-10-27T05:57:43.879Z,99.99
2016-10-27T05:58:55.285Z,99.99
2016-10-27T06:00:07.816Z,99.99
2016-10-27T06:01:20.841Z,99.99
2016-10-27T06:02:34.003Z,99.99
2016-10-27T06:03:47.080Z,99.99
2016-10-27T06:04:59.495Z,99.99
2016-10-27T06:06:11.433Z,99.99
2016-10-27T06:07:22.923Z,99.99
2016-10-27T06:08:36.064Z,99.99
2016-10-27T06:09:49.297Z,99.99
2016-10-27T06:11:02.318Z,99.99
2016-10-27T06:12:14.765Z,99.99
2016-10-27T06:13:26.829Z,99.99
2016-10-27T06:14:40.395Z,99.99
2016-10-27T06:15:52.869Z,99.99
2016-10-27T06:17:05.864Z,99.99
2016-10-27T06:18:18.898Z,99.99
2016-10-27T06:19:32.378Z,99.99
2016-10-27T06:20:44.870Z,99.99
2016-10-27T06:21:57.322Z,99.99
2016-10-27T06:23:10.309Z,99.99
2016-10-27T06:24:23.994Z,99.99
2016-10-27T06:25:37.008Z,99.99
2016-10-27T06:26:49.504Z,99.99
2016-10-27T06:28:02.541Z,99.99
2016-10-27T06:29:14.454Z,99.99
2016-10-27T06:30:26.907Z,99.99
2016-10-27T06:31:39.999Z,99.99
2016-10-27T06:32:52.993Z,99.99
2016-10-27T06:34:05.531Z,99.99
2016-10-27T06:35:18.090Z,99.99
2016-10-27T06:36:29.996Z,99.99
2016-10-27T06:37:42.997Z,99.99
2016-10-27T06:38:56.042Z,99.99
2016-10-27T06:40:09.068Z,99.99
2016-10-27T06:41:20.985Z,99.99
2016-10-27T06:42:33.982Z,99.99
2016-10-27T06:43:46.488Z,99.99
2016-10-27T06:44:57.917Z,99.99
2016-10-27T06:46:10.608Z,99.99
2016-10-27T06:47:23.629Z,99.99
2016-10-27T06:48:35.086Z,99.99
2016-10-27T06:49:48.350Z,99.99
2016-10-27T06:50:59.791Z,99.99
2016-10-27T06:52:12.785Z,99.99
2016-10-27T06:53:26.274Z,99.99
2016-10-27T06:54:38.305Z,99.99
2016-10-27T06:55:51.264Z,99.99
2016-10-27T06:57:02.772Z,99.99
2016-10-27T06:58:15.206Z,99.99
2016-10-27T06:59:27.694Z,99.99
2016-10-27T07:00:40.154Z,99.99
2016-10-27T07:01:52.130Z,99.99
2016-10-27T07:03:04.167Z,99.99
2016-10-27T07:04:16.984Z,99.99
2016-10-27T07:05:30.528Z,99.99
2016-10-27T07:06:43.560Z,99.99
2016-10-27T07:07:56.601Z,99.99
2016-10-27T07:09:09.733Z,99.99
2016-10-27T07:10:22.226Z,99.99
2016-10-27T07:11:35.727Z,99.99
2016-10-27T07:12:49.296Z,99.99
2016-10-27T07:14:02.405Z,99.99
2016-10-27T07:15:14.874Z,99.99
2016-10-27T07:16:26.931Z,99.99
2016-10-27T07:17:38.931Z,99.99
2016-10-27T07:18:52.412Z,99.99
2016-10-27T07:20:05.105Z,99.99
2016-10-27T07:21:16.990Z,99.99
2016-10-27T07:22:29.997Z,99.99
2016-10-27T07:23:42.548Z,99.99
2016-10-27T07:24:55.803Z,99.99
2016-10-27T07:26:07.735Z,99.99
2016-10-27T07:27:20.134Z,99.99
2016-10-27T07:28:32.132Z,99.99
2016-10-27T07:29:44.593Z,99.99
2016-10-27T07:30:57.582Z,99.99
2016-10-27T07:32:10.071Z,99.99
2016-10-27T07:33:23.660Z,99.99
2016-10-27T07:34:35.647Z,99.99
2016-10-27T07:35:47.666Z,99.99
2016-10-27T07:37:00.611Z,99.99
2016-10-27T07:38:13.555Z,99.99
2016-10-27T07:39:26.607Z,99.99
2016-10-27T07:40:39.035Z,99.99
2016-10-27T07:41:51.540Z,99.99
2016-10-27T07:43:04.496Z,99.99
2016-10-27T07:44:18.009Z,99.99
2016-10-27T07:45:30.985Z,99.99
2016-10-27T07:46:43.547Z,99.99
2016-10-27T07:47:55.506Z,99.99
2016-10-27T07:49:07.424Z,99.99
2016-10-27T07:50:19.399Z,99.99
2016-10-27T07:51:31.925Z,99.99
2016-10-27T07:52:44.905Z,99.99
2016-10-27T07:53:57.827Z,99.99
2016-10-27T07:55:10.825Z,99.99
2016-10-27T07:56:23.251Z,99.99
2016-10-27T07:57:36.394Z,99.99
2016-10-27T07:58:48.896Z,99.99
2016-10-27T08:00:01.370Z,99.99
2016-10-27T08:01:13.276Z,99.99
2016-10-27T08:02:26.266Z,99.99
2016-10-27T08:03:39.327Z,99.99
2016-10-27T08:04:51.318Z,99.99
2016-10-27T08:06:04.324Z,99.99
2016-10-27T08:07:17.366Z,99.99
2016-10-27T08:08:29.394Z,99.99
2016-10-27T08:09:42.405Z,99.99
2016-10-27T08:10:54.384Z,99.99
2016-10-27T08:12:07.408Z,99.99
2016-10-27T08:13:20.387Z,99.99
2016-10-27T08:14:31.933Z,99.99
2016-10-27T08:15:43.872Z,99.99
2016-10-27T08:16:56.933Z,99.99
2016-10-27T08:18:09.441Z,99.99
2016-10-27T08:19:23.209Z,99.99
2016-10-27T08:20:34.619Z,99.99
2016-10-27T08:21:47.701Z,99.99
2016-10-27T08:23:00.163Z,99.99
2016-10-27T08:24:12.650Z,99.99
2016-10-27T08:25:25.268Z,99.99
2016-10-27T08:26:38.341Z,99.99
2016-10-27T08:27:50.372Z,99.99
2016-10-27T08:29:03.429Z,99.99
2016-10-27T08:30:16.060Z,99.99
2016-10-27T08:31:28.530Z,99.99
2016-10-27T08:32:41.503Z,99.99
2016-10-27T08:33:54.020Z,99.99
2016-10-27T08:35:06.509Z,99.99
2016-10-27T08:36:18.506Z,99.99
2016-10-27T08:37:31.001Z,99.99
2016-10-27T08:38:43.969Z,99.99
2016-10-27T08:39:57.000Z,99.99
2016-10-27T08:41:09.619Z,99.99
2016-10-27T08:42:22.108Z,99.99
2016-10-27T08:43:35.560Z,99.99
2016-10-27T08:44:48.013Z,99.99
2016-10-27T08:46:01.536Z,99.99
2016-10-27T08:47:14.734Z,99.99
2016-10-27T08:48:28.255Z,99.99
2016-10-27T08:49:41.230Z,99.99
2016-10-27T08:50:53.759Z,99.99
2016-10-27T08:52:06.835Z,99.99
2016-10-27T08:53:19.796Z,99.99
2016-10-27T08:54:32.337Z,99.99
2016-10-27T08:55:45.355Z,99.99
2016-10-27T08:56:57.880Z,99.99
2016-10-27T08:58:10.955Z,99.99
2016-10-27T08:59:23.434Z,99.99
2016-10-27T09:00:35.510Z,99.99
2016-10-27T09:01:48.590Z,99.99
2016-10-27T09:03:02.555Z,99.99
2016-10-27T09:04:16.206Z,99.99
2016-10-27T09:05:28.699Z,99.99
2016-10-27T09:06:42.290Z,99.99
2016-10-27T09:07:54.984Z,99.99
2016-10-27T09:09:06.441Z,99.99
2016-10-27T09:10:20.654Z,99.99
2016-10-27T09:11:32.812Z,99.99
2016-10-27T09:12:46.574Z,99.99
2016-10-27T09:13:58.596Z,99.99
2016-10-27T09:15:11.217Z,99.99
2016-10-27T09:16:24.727Z,99.99
2016-10-27T09:17:36.381Z,99.99
2016-10-27T09:18:49.002Z,99.99
2016-10-27T09:20:02.309Z,99.21
2016-10-27T09:21:14.283Z,99.69
2016-10-27T09:22:27.037Z,99.99
2016-10-27T09:23:39.883Z,99.98
2016-10-27T09:24:51.847Z,99.78
2016-10-27T09:26:05.010Z,99.99
2016-10-27T09:27:18.077Z,99.4
2016-10-27T09:28:30.165Z,99.99
2016-10-27T09:29:43.664Z,99.69
2016-10-27T09:30:56.878Z,99.99
2016-10-27T09:32:09.485Z,99.99
2016-10-27T09:33:23.211Z,99.69
2016-10-27T09:34:36.283Z,99.69
2016-10-27T09:35:47.792Z,99.84
2016-10-27T09:36:59.772Z,99.74
2016-10-27T09:38:12.872Z,99.3
2016-10-27T09:39:25.577Z,99.3
2016-10-27T09:40:38.569Z,99.3
2016-10-27T09:42:22.884Z,98.77
2016-10-27T09:43:35.861Z,98.34
2016-10-27T09:44:48.890Z,98.77
2016-10-27T09:46:01.928Z,98.68
2016-10-27T09:47:15.585Z,98.82
2016-10-27T09:48:28.089Z,99.44
2016-10-27T09:49:41.150Z,98.82
2016-10-27T09:50:53.732Z,99.35
2016-10-27T09:52:06.826Z,98.87
2016-10-27T09:53:19.749Z,98
2016-10-27T09:54:33.263Z,98.87
2016-10-27T09:55:45.757Z,98.87
2016-10-27T09:56:57.907Z,97.52
2016-10-27T09:58:11.929Z,96.94
2016-10-27T09:59:25.906Z,97.33
2016-10-27T10:00:38.127Z,98.77
2016-10-27T10:01:50.306Z,98.77
2016-10-27T10:03:04.451Z,99.26
2016-10-27T10:04:23.666Z,99.74
2016-10-27T10:05:41.175Z,96.85
2016-10-27T10:06:54.143Z,96.66
2016-10-27T10:08:06.739Z,96.46
2016-10-27T10:09:19.741Z,98.29
2016-10-27T10:10:33.300Z,97.81
2016-10-27T10:11:45.305Z,98.29
2016-10-27T10:12:57.447Z,98.1
2016-10-27T10:14:11.144Z,99.69
2016-10-27T10:15:23.606Z,99.21
2016-10-27T10:16:36.080Z,98.92
2016-10-27T10:17:49.606Z,97.47
2016-10-27T10:19:02.607Z,96.42
2016-10-27T10:20:15.524Z,97.19
2016-10-27T10:21:27.951Z,97.57
2016-10-27T10:22:40.947Z,96.89
2016-10-27T10:23:53.586Z,96.7
2016-10-27T10:25:06.698Z,96.22
2016-10-27T10:26:19.689Z,95.36
2016-10-27T10:27:32.779Z,95.45
2016-10-27T10:28:45.838Z,95.55
2016-10-27T10:29:58.594Z,93.91
2016-10-27T10:31:14.103Z,94.1
2016-10-27T10:32:26.263Z,94.2
2016-10-27T10:33:38.761Z,93.09
2016-10-27T10:34:51.878Z,92.71
2016-10-27T10:36:03.867Z,93.09
2016-10-27T10:37:16.326Z,92.32
2016-10-27T10:38:28.849Z,91.83
2016-10-27T10:39:41.840Z,89.91
2016-10-27T10:40:55.403Z,90.88
2016-10-27T10:42:07.919Z,89.04
2016-10-27T10:43:19.352Z,89.14
2016-10-27T10:44:31.841Z,88.65
2016-10-27T10:45:43.993Z,87.88
2016-10-27T10:46:57.009Z,87.3
2016-10-27T10:48:10.049Z,88.08
2016-10-27T10:49:23.982Z,87.3
2016-10-27T10:50:37.457Z,87.79
2016-10-27T10:51:50.427Z,88.17
2016-10-27T10:53:04.030Z,88.37
2016-10-27T10:54:16.555Z,87.7
2016-10-27T10:55:29.754Z,86.44
2016-10-27T10:56:43.545Z,85.09
2016-10-27T10:57:57.359Z,86.68
2016-10-27T10:59:09.955Z,84.8
2016-10-27T11:00:23.174Z,84.84
2016-10-27T11:01:38.868Z,83.3
2016-10-27T11:02:54.658Z,83.3
2016-10-27T11:04:07.178Z,83.5
2016-10-27T11:05:20.233Z,84.27
2016-10-27T11:06:33.571Z,82.62
2016-10-27T11:07:47.138Z,82.24
2016-10-27T11:09:00.785Z,83.25
2016-10-27T11:10:13.430Z,83.25
2016-10-27T11:11:27.097Z,83.34
2016-10-27T11:12:40.344Z,82.67
2016-10-27T11:13:52.909Z,82.82
2016-10-27T11:15:06.611Z,83.59
2016-10-27T11:16:19.638Z,81.95
2016-10-27T11:17:33.339Z,82.09
2016-10-27T11:18:46.440Z,82.38
2016-10-27T11:19:58.977Z,82.38
2016-10-27T11:21:12.042Z,82.18
2016-10-27T11:22:25.087Z,82.48
2016-10-27T11:23:37.775Z,82.18
2016-10-27T11:24:50.814Z,80.26
2016-10-27T11:26:03.370Z,80.35
2016-10-27T11:27:16.364Z,81.22
2016-10-27T11:28:28.842Z,80.35
2016-10-27T11:29:41.385Z,80.49
2016-10-27T11:30:55.056Z,80.87
2016-10-27T11:32:08.744Z,81.16
2016-10-27T11:33:20.678Z,81.35
2016-10-27T11:34:33.790Z,80.97
2016-10-27T11:35:46.843Z,80.1
2016-10-27T11:36:59.375Z,79.52
2016-10-27T11:38:10.859Z,79.91
2016-10-27T11:39:22.861Z,79.24
2016-10-27T11:40:35.481Z,79.14
2016-10-27T11:41:48.535Z,79.52
2016-10-27T11:43:00.998Z,79.04
2016-10-27T11:44:12.973Z,79.52
2016-10-27T11:45:25.642Z,79.43
2016-10-27T11:46:37.774Z,79.43
2016-10-27T11:47:50.727Z,79.47
2016-10-27T11:49:03.446Z,78.79
2016-10-27T11:50:16.210Z,78.89
2016-10-27T11:51:29.900Z,77.76
2016-10-27T11:52:42.408Z,76.61
2016-10-27T11:54:27.119Z,76.35
2016-10-27T11:55:39.180Z,75.87
2016-10-27T11:56:51.722Z,75.68
2016-10-27T11:58:04.916Z,76.45
2016-10-27T11:59:16.404Z,75.91
2016-10-27T12:00:28.950Z,75.95
2016-10-27T12:01:42.159Z,74.21
2016-10-27T12:02:55.155Z,71.5
2016-10-27T12:04:07.669Z,71.11
2016-10-27T12:05:19.279Z,70.86
2016-10-27T12:06:32.871Z,71.34
2016-10-27T12:07:45.357Z,71.34
2016-10-27T12:08:57.784Z,70.5
2016-10-27T12:10:09.858Z,68.66
2016-10-27T12:11:22.322Z,67.3
2016-10-27T12:12:34.882Z,67.4
2016-10-27T12:13:46.918Z,66.63
2016-10-27T12:14:59.495Z,67.21
2016-10-27T12:16:11.497Z,67.11
2016-10-27T12:17:23.595Z,66.72
2016-10-27T12:18:36.806Z,66.17
2016-10-27T12:19:48.251Z,66.56
2016-10-27T12:21:01.900Z,66.75
2016-10-27T12:22:14.431Z,66.53
2016-10-27T12:23:27.635Z,66.92
2016-10-27T12:24:40.952Z,67.3
2016-10-27T12:25:53.133Z,68.08
2016-10-27T12:27:06.233Z,68.47
2016-10-27T12:28:19.411Z,66.08
2016-10-27T12:29:33.245Z,65.59
2016-10-27T12:30:45.217Z,63.75
2016-10-27T12:31:56.201Z,64.72
2016-10-27T12:33:08.748Z,65.2
2016-10-27T12:34:20.479Z,65.4
2016-10-27T12:35:33.029Z,65.63
2016-10-27T12:36:46.180Z,65.43
2016-10-27T12:37:59.253Z,65.05
2016-10-27T12:39:11.319Z,63.23
2016-10-27T12:40:23.896Z,62.65
2016-10-27T12:41:36.369Z,62.23
2016-10-27T12:42:48.901Z,62.43
2016-10-27T12:44:01.063Z,62.72
2016-10-27T12:45:14.805Z,60.78
